sensor_id;sensor_type;location;lat;lon;timestamp;pressure;altitude;pressure_sealevel;temperature;humidity
51081;BME280;37130;55.670;37.596;2023-11-18T00:00:16;100366.81;;;-6.40;94.12
51081;BME280;37130;55.670;37.596;2023-11-18T00:02:44;100360.78;;;-6.41;93.88
51081;BME280;37130;55.670;37.596;2023-11-18T00:05:14;100366.78;;;-6.42;93.94
51081;BME280;37130;55.670;37.596;2023-11-18T00:07:42;100369.34;;;-6.42;94.57
51081;BME280;37130;55.670;37.596;2023-11-18T00:10:10;100343.84;;;-6.59;94.73
51081;BME280;37130;55.670;37.596;2023-11-18T00:12:38;100369.88;;;-6.52;94.58
51081;BME280;37130;55.670;37.596;2023-11-18T00:15:09;100307.69;;;-6.88;94.74
51081;BME280;37130;55.670;37.596;2023-11-18T00:17:39;100349.72;;;-6.64;94.75
51081;BME280;37130;55.670;37.596;2023-11-18T00:20:08;100361.91;;;-6.58;94.09
51081;BME280;37130;55.670;37.596;2023-11-18T00:22:37;100373.31;;;-6.51;94.45
51081;BME280;37130;55.670;37.596;2023-11-18T00:25:05;100385.31;;;-6.52;94.30
51081;BME280;37130;55.670;37.596;2023-11-18T00:27:33;100335.25;;;-6.86;94.11
51081;BME280;37130;55.670;37.596;2023-11-18T00:30:06;100310.81;;;-6.97;95.23
51081;BME280;37130;55.670;37.596;2023-11-18T00:32:40;100386.09;;;-6.54;94.61
51081;BME280;37130;55.670;37.596;2023-11-18T00:35:08;100383.56;;;-6.53;94.26
51081;BME280;37130;55.670;37.596;2023-11-18T00:37:38;100336.97;;;-6.85;94.47
51081;BME280;37130;55.670;37.596;2023-11-18T00:40:07;100311.81;;;-6.93;95.03
51081;BME280;37130;55.670;37.596;2023-11-18T00:42:36;100321.25;;;-6.94;94.90
51081;BME280;37130;55.670;37.596;2023-11-18T00:45:05;100387.84;;;-6.53;94.71
51081;BME280;37130;55.670;37.596;2023-11-18T00:47:33;100384.22;;;-6.58;95.19
51081;BME280;37130;55.670;37.596;2023-11-18T00:50:02;100391.09;;;-6.59;95.31
51081;BME280;37130;55.670;37.596;2023-11-18T00:52:33;100325.34;;;-6.99;95.45
51081;BME280;37130;55.670;37.596;2023-11-18T00:55:01;100388.50;;;-6.59;95.97
51081;BME280;37130;55.670;37.596;2023-11-18T00:57:32;100334.91;;;-6.95;95.20
51081;BME280;37130;55.670;37.596;2023-11-18T00:59:59;100310.44;;;-7.08;95.23
51081;BME280;37130;55.670;37.596;2023-11-18T01:02:27;100389.28;;;-6.62;95.91
51081;BME280;37130;55.670;37.596;2023-11-18T01:04:55;100393.59;;;-6.61;95.84
51081;BME280;37130;55.670;37.596;2023-11-18T01:07:23;100390.16;;;-6.61;95.32
51081;BME280;37130;55.670;37.596;2023-11-18T01:09:51;100400.34;;;-6.64;95.50
51081;BME280;37130;55.670;37.596;2023-11-18T01:12:19;100398.63;;;-6.65;94.79
51081;BME280;37130;55.670;37.596;2023-11-18T01:14:47;100405.41;;;-6.67;95.27
51081;BME280;37130;55.670;37.596;2023-11-18T01:17:15;100314.31;;;-7.20;94.99
51081;BME280;37130;55.670;37.596;2023-11-18T01:19:44;100401.72;;;-6.74;94.88
51081;BME280;37130;55.670;37.596;2023-11-18T01:22:11;100397.41;;;-6.75;95.33
51081;BME280;37130;55.670;37.596;2023-11-18T01:24:40;100402.59;;;-6.73;96.18
51081;BME280;37130;55.670;37.596;2023-11-18T01:27:08;100335.13;;;-7.13;95.56
51081;BME280;37130;55.670;37.596;2023-11-18T01:29:39;100391.50;;;-6.72;96.02
51081;BME280;37130;55.670;37.596;2023-11-18T01:32:08;100388.59;;;-6.81;95.86
51081;BME280;37130;55.670;37.596;2023-11-18T01:34:39;100404.38;;;-6.72;96.03
51081;BME280;37130;55.670;37.596;2023-11-18T01:37:07;100330.72;;;-7.17;95.13
51081;BME280;37130;55.670;37.596;2023-11-18T01:39:35;100409.63;;;-6.69;95.98
51081;BME280;37130;55.670;37.596;2023-11-18T01:42:03;100331.44;;;-7.21;95.22
51081;BME280;37130;55.670;37.596;2023-11-18T01:44:31;100408.66;;;-6.73;95.80
51081;BME280;37130;55.670;37.596;2023-11-18T01:47:05;100373.16;;;-7.06;95.92
51081;BME280;37130;55.670;37.596;2023-11-18T01:49:35;100343.75;;;-7.12;95.29
51081;BME280;37130;55.670;37.596;2023-11-18T01:52:08;100398.69;;;-6.88;95.10
51081;BME280;37130;55.670;37.596;2023-11-18T01:54:38;100411.56;;;-6.88;96.04
51081;BME280;37130;55.670;37.596;2023-11-18T01:57:06;100405.34;;;-6.93;95.52
51081;BME280;37130;55.670;37.596;2023-11-18T01:59:37;100377.22;;;-7.12;95.90
51081;BME280;37130;55.670;37.596;2023-11-18T02:02:09;100413.16;;;-6.91;96.00
51081;BME280;37130;55.670;37.596;2023-11-18T02:04:39;100328.16;;;-7.41;96.15
51081;BME280;37130;55.670;37.596;2023-11-18T02:07:08;100363.84;;;-7.26;95.99
51081;BME280;37130;55.670;37.596;2023-11-18T02:09:36;100353.34;;;-7.32;95.83
51081;BME280;37130;55.670;37.596;2023-11-18T02:15:08;100422.22;;;-7.01;96.01
51081;BME280;37130;55.670;37.596;2023-11-18T02:17:38;100342.44;;;-7.49;95.78
51081;BME280;37130;55.670;37.596;2023-11-18T02:20:08;100412.69;;;-7.03;96.37
51081;BME280;37130;55.670;37.596;2023-11-18T02:22:43;100349.44;;;-7.45;95.99
51081;BME280;37130;55.670;37.596;2023-11-18T02:25:18;100402.34;;;-7.05;96.98
51081;BME280;37130;55.670;37.596;2023-11-18T02:27:48;100403.25;;;-7.04;96.20
51081;BME280;37130;55.670;37.596;2023-11-18T02:30:19;100359.03;;;-7.41;96.12
51081;BME280;37130;55.670;37.596;2023-11-18T02:32:53;100413.28;;;-7.11;96.58
51081;BME280;37130;55.670;37.596;2023-11-18T02:35:28;100376.56;;;-7.31;97.03
51081;BME280;37130;55.670;37.596;2023-11-18T02:37:58;100414.16;;;-7.10;96.36
51081;BME280;37130;55.670;37.596;2023-11-18T02:40:36;100339.72;;;-7.52;96.05
51081;BME280;37130;55.670;37.596;2023-11-18T02:43:05;100418.44;;;-7.11;96.87
51081;BME280;37130;55.670;37.596;2023-11-18T02:45:35;100413.38;;;-7.09;97.32
51081;BME280;37130;55.670;37.596;2023-11-18T02:48:04;100302.78;;;-7.78;96.56
51081;BME280;37130;55.670;37.596;2023-11-18T02:50:35;100308.09;;;-7.74;96.45
51081;BME280;37130;55.670;37.596;2023-11-18T02:53:04;100414.88;;;-7.14;96.40
51081;BME280;37130;55.670;37.596;2023-11-18T02:55:32;100415.66;;;-7.17;96.68
51081;BME280;37130;55.670;37.596;2023-11-18T02:58:02;100417.41;;;-7.16;97.44
51081;BME280;37130;55.670;37.596;2023-11-18T03:00:36;100413.94;;;-7.16;96.66
51081;BME280;37130;55.670;37.596;2023-11-18T03:03:05;100417.34;;;-7.17;97.81
51081;BME280;37130;55.670;37.596;2023-11-18T03:05:34;100298.88;;;-7.91;96.71
51081;BME280;37130;55.670;37.596;2023-11-18T03:08:04;100416.59;;;-7.15;96.82
51081;BME280;37130;55.670;37.596;2023-11-18T03:10:33;100394.50;;;-7.32;97.18
51081;BME280;37130;55.670;37.596;2023-11-18T03:13:03;100410.50;;;-7.17;97.66
51081;BME280;37130;55.670;37.596;2023-11-18T03:15:30;100407.44;;;-7.31;97.15
51081;BME280;37130;55.670;37.596;2023-11-18T03:17:58;100424.72;;;-7.27;97.39
51081;BME280;37130;55.670;37.596;2023-11-18T03:20:26;100407.38;;;-7.32;96.93
51081;BME280;37130;55.670;37.596;2023-11-18T03:22:54;100431.84;;;-7.19;96.83
51081;BME280;37130;55.670;37.596;2023-11-18T03:25:23;100437.66;;;-7.25;97.46
51081;BME280;37130;55.670;37.596;2023-11-18T03:27:50;100431.50;;;-7.29;97.60
51081;BME280;37130;55.670;37.596;2023-11-18T03:30:18;100439.94;;;-7.33;97.12
51081;BME280;37130;55.670;37.596;2023-11-18T03:32:45;100415.53;;;-7.44;97.06
51081;BME280;37130;55.670;37.596;2023-11-18T03:35:13;100424.41;;;-7.36;97.31
51081;BME280;37130;55.670;37.596;2023-11-18T03:37:42;100415.53;;;-7.44;97.25
51081;BME280;37130;55.670;37.596;2023-11-18T03:40:12;100423.47;;;-7.38;97.53
51081;BME280;37130;55.670;37.596;2023-11-18T03:42:44;100429.47;;;-7.37;97.42
51081;BME280;37130;55.670;37.596;2023-11-18T03:45:14;100378.69;;;-7.65;97.49
51081;BME280;37130;55.670;37.596;2023-11-18T03:47:42;100420.00;;;-7.38;97.61
51081;BME280;37130;55.670;37.596;2023-11-18T03:50:10;100436.31;;;-7.38;97.51
51081;BME280;37130;55.670;37.596;2023-11-18T03:52:41;100371.56;;;-7.73;97.18
51081;BME280;37130;55.670;37.596;2023-11-18T03:55:09;100379.09;;;-7.77;97.66
51081;BME280;37130;55.670;37.596;2023-11-18T03:57:36;100440.03;;;-7.52;98.00
51081;BME280;37130;55.670;37.596;2023-11-18T04:00:05;100438.50;;;-7.48;98.09
51081;BME280;37130;55.670;37.596;2023-11-18T04:02:36;100431.94;;;-7.40;98.04
51081;BME280;37130;55.670;37.596;2023-11-18T04:05:05;100430.34;;;-7.37;98.38
51081;BME280;37130;55.670;37.596;2023-11-18T04:07:33;100418.88;;;-7.45;97.96
51081;BME280;37130;55.670;37.596;2023-11-18T04:10:01;100436.31;;;-7.38;97.75
51081;BME280;37130;55.670;37.596;2023-11-18T04:12:30;100392.69;;;-7.57;98.12
51081;BME280;37130;55.670;37.596;2023-11-18T04:14:58;100350.06;;;-7.75;98.79
51081;BME280;37130;55.670;37.596;2023-11-18T04:17:25;100435.47;;;-7.14;99.04
51081;BME280;37130;55.670;37.596;2023-11-18T04:19:55;100409.75;;;-7.37;98.55
51081;BME280;37130;55.670;37.596;2023-11-18T04:22:23;100435.47;;;-7.14;99.12
51081;BME280;37130;55.670;37.596;2023-11-18T04:24:51;100387.22;;;-7.44;98.89
51081;BME280;37130;55.670;37.596;2023-11-18T04:27:19;100424.91;;;-7.22;98.96
51081;BME280;37130;55.670;37.596;2023-11-18T04:29:46;100433.84;;;-7.12;99.33
51081;BME280;37130;55.670;37.596;2023-11-18T04:32:14;100448.53;;;-7.10;99.27
51081;BME280;37130;55.670;37.596;2023-11-18T04:34:41;100397.63;;;-7.41;99.20
51081;BME280;37130;55.670;37.596;2023-11-18T04:37:11;100376.00;;;-7.46;99.17
51081;BME280;37130;55.670;37.596;2023-11-18T04:39:39;100454.06;;;-6.99;99.63
51081;BME280;37130;55.670;37.596;2023-11-18T04:42:07;100453.22;;;-6.98;99.51
51081;BME280;37130;55.670;37.596;2023-11-18T04:44:34;100420.63;;;-7.21;98.90
51081;BME280;37130;55.670;37.596;2023-11-18T04:47:02;100348.66;;;-7.66;99.19
51081;BME280;37130;55.670;37.596;2023-11-18T04:49:31;100398.53;;;-7.39;99.31
51081;BME280;37130;55.670;37.596;2023-11-18T04:51:58;100376.47;;;-7.56;98.64
51081;BME280;37130;55.670;37.596;2023-11-18T04:54:26;100434.22;;;-7.25;99.67
51081;BME280;37130;55.670;37.596;2023-11-18T04:56:53;100414.31;;;-7.30;99.75
51081;BME280;37130;55.670;37.596;2023-11-18T04:59:21;100420.59;;;-7.23;99.47
51081;BME280;37130;55.670;37.596;2023-11-18T05:01:49;100414.53;;;-7.23;99.98
51081;BME280;37130;55.670;37.596;2023-11-18T05:04:16;100443.41;;;-7.08;99.39
51081;BME280;37130;55.670;37.596;2023-11-18T05:06:44;100450.06;;;-7.15;99.25
51081;BME280;37130;55.670;37.596;2023-11-18T05:09:12;100441.97;;;-7.24;99.86
51081;BME280;37130;55.670;37.596;2023-11-18T05:11:39;100444.44;;;-7.27;99.67
51081;BME280;37130;55.670;37.596;2023-11-18T05:14:07;100428.81;;;-7.32;99.84
51081;BME280;37130;55.670;37.596;2023-11-18T05:16:35;100449.16;;;-7.15;100.00
51081;BME280;37130;55.670;37.596;2023-11-18T05:19:03;100405.91;;;-7.48;99.88
51081;BME280;37130;55.670;37.596;2023-11-18T05:21:31;100348.34;;;-7.74;100.00
51081;BME280;37130;55.670;37.596;2023-11-18T05:23:59;100451.72;;;-7.15;100.00
51081;BME280;37130;55.670;37.596;2023-11-18T05:26:26;100460.75;;;-7.04;100.00
51081;BME280;37130;55.670;37.596;2023-11-18T05:28:54;100396.19;;;-7.33;100.00
51081;BME280;37130;55.670;37.596;2023-11-18T05:31:22;100460.16;;;-6.73;100.00
51081;BME280;37130;55.670;37.596;2023-11-18T05:33:49;100372.97;;;-7.10;100.00
51081;BME280;37130;55.670;37.596;2023-11-18T05:36:19;100426.03;;;-6.66;100.00
51081;BME280;37130;55.670;37.596;2023-11-18T05:38:54;100453.84;;;-6.31;100.00
51081;BME280;37130;55.670;37.596;2023-11-18T05:41:22;100462.75;;;-6.23;100.00
51081;BME280;37130;55.670;37.596;2023-11-18T05:43:58;100453.47;;;-6.18;100.00
51081;BME280;37130;55.670;37.596;2023-11-18T05:46:26;100480.38;;;-6.10;99.83
51081;BME280;37130;55.670;37.596;2023-11-18T05:48:59;100463.44;;;-6.02;100.00
51081;BME280;37130;55.670;37.596;2023-11-18T05:51:29;100448.75;;;-6.04;99.82
51081;BME280;37130;55.670;37.596;2023-11-18T05:53:56;100465.56;;;-5.88;100.00
51081;BME280;37130;55.670;37.596;2023-11-18T05:56:25;100446.50;;;-5.93;99.34
51081;BME280;37130;55.670;37.596;2023-11-18T05:58:53;100351.34;;;-6.40;99.44
51081;BME280;37130;55.670;37.596;2023-11-18T06:01:22;100392.72;;;-6.10;99.17
51081;BME280;37130;55.670;37.596;2023-11-18T06:03:50;100382.59;;;-6.31;98.96
51081;BME280;37130;55.670;37.596;2023-11-18T06:06:18;100410.09;;;-6.03;99.35
51081;BME280;37130;55.670;37.596;2023-11-18T06:08:54;100472.97;;;-5.72;99.62
51081;BME280;37130;55.670;37.596;2023-11-18T06:11:31;100477.19;;;-5.47;100.00
51081;BME280;37130;55.670;37.596;2023-11-18T06:13:59;100460.66;;;-5.25;100.00
51081;BME280;37130;55.670;37.596;2023-11-18T06:16:27;100467.47;;;-4.67;100.00
51081;BME280;37130;55.670;37.596;2023-11-18T06:18:56;100470.16;;;-3.62;100.00
51081;BME280;37130;55.670;37.596;2023-11-18T06:21:25;100461.53;;;-2.38;98.57
51081;BME280;37130;55.670;37.596;2023-11-18T06:23:58;100418.72;;;-0.99;95.06
51081;BME280;37130;55.670;37.596;2023-11-18T06:26:31;100388.41;;;-0.09;92.38
51081;BME280;37130;55.670;37.596;2023-11-18T06:29:04;100366.25;;;0.50;89.77
51081;BME280;37130;55.670;37.596;2023-11-18T06:31:35;100463.84;;;0.98;88.23
51081;BME280;37130;55.670;37.596;2023-11-18T06:34:03;100460.47;;;1.24;88.07
51081;BME280;37130;55.670;37.596;2023-11-18T06:36:30;100462.56;;;0.35;86.83
51081;BME280;37130;55.670;37.596;2023-11-18T06:38:58;100425.41;;;-0.42;88.01
51081;BME280;37130;55.670;37.596;2023-11-18T06:41:29;100469.59;;;-0.45;87.98
51081;BME280;37130;55.670;37.596;2023-11-18T06:44:01;100474.38;;;-0.82;89.38
51081;BME280;37130;55.670;37.596;2023-11-18T06:46:37;100406.72;;;-1.52;89.46
51081;BME280;37130;55.670;37.596;2023-11-18T06:49:08;100471.72;;;-1.47;89.58
51081;BME280;37130;55.670;37.596;2023-11-18T06:51:38;100435.63;;;-1.87;89.80
51081;BME280;37130;55.670;37.596;2023-11-18T06:54:06;100489.50;;;-1.75;89.62
51081;BME280;37130;55.670;37.596;2023-11-18T06:56:40;100480.56;;;-1.89;89.55
51081;BME280;37130;55.670;37.596;2023-11-18T06:59:12;100492.41;;;-2.05;90.42
51081;BME280;37130;55.670;37.596;2023-11-18T07:01:43;100498.38;;;-2.11;90.12
51081;BME280;37130;55.670;37.596;2023-11-18T07:04:13;100419.69;;;-2.57;90.04
51081;BME280;37130;55.670;37.596;2023-11-18T07:06:44;100499.28;;;-2.09;90.28
51081;BME280;37130;55.670;37.596;2023-11-18T07:09:16;100473.38;;;-1.54;89.96
51081;BME280;37130;55.670;37.596;2023-11-18T07:11:48;100436.59;;;-1.22;89.04
51081;BME280;37130;55.670;37.596;2023-11-18T07:14:18;100441.63;;;-0.66;88.47
51081;BME280;37130;55.670;37.596;2023-11-18T07:16:46;100480.66;;;0.16;86.82
51081;BME280;37130;55.670;37.596;2023-11-18T07:19:14;100422.41;;;0.08;85.79
51081;BME280;37130;55.670;37.596;2023-11-18T07:21:49;100428.06;;;0.76;85.99
51081;BME280;37130;55.670;37.596;2023-11-18T07:24:18;100400.56;;;2.25;83.03
51081;BME280;37130;55.670;37.596;2023-11-18T07:26:48;100467.63;;;4.40;79.62
51081;BME280;37130;55.670;37.596;2023-11-18T07:29:18;100453.91;;;5.74;73.01
51081;BME280;37130;55.670;37.596;2023-11-18T07:31:46;100455.56;;;5.80;72.53
51081;BME280;37130;55.670;37.596;2023-11-18T07:34:14;100442.94;;;4.67;75.47
51081;BME280;37130;55.670;37.596;2023-11-18T07:36:42;100477.34;;;4.29;78.95
51081;BME280;37130;55.670;37.596;2023-11-18T07:39:13;100480.34;;;3.75;79.26
51081;BME280;37130;55.670;37.596;2023-11-18T07:41:51;100446.66;;;2.91;80.86
51081;BME280;37130;55.670;37.596;2023-11-18T07:44:20;100422.34;;;2.32;80.88
51081;BME280;37130;55.670;37.596;2023-11-18T07:46:49;100495.53;;;2.49;81.61
51081;BME280;37130;55.670;37.596;2023-11-18T07:49:17;100501.63;;;2.11;80.76
51081;BME280;37130;55.670;37.596;2023-11-18T07:51:45;100438.81;;;1.48;80.69
51081;BME280;37130;55.670;37.596;2023-11-18T07:54:12;100461.41;;;1.38;80.41
51081;BME280;37130;55.670;37.596;2023-11-18T07:56:40;100452.47;;;0.85;79.16
51081;BME280;37130;55.670;37.596;2023-11-18T07:59:09;100494.97;;;0.75;80.35
51081;BME280;37130;55.670;37.596;2023-11-18T08:01:40;100443.34;;;0.22;80.16
51081;BME280;37130;55.670;37.596;2023-11-18T08:04:17;100477.38;;;0.40;79.59
51081;BME280;37130;55.670;37.596;2023-11-18T08:06:49;100504.31;;;0.44;79.14
51081;BME280;37130;55.670;37.596;2023-11-18T08:09:16;100508.19;;;-0.07;79.64
51081;BME280;37130;55.670;37.596;2023-11-18T08:11:50;100435.16;;;-0.97;80.24
51081;BME280;37130;55.670;37.596;2023-11-18T08:14:18;100498.94;;;-0.60;80.54
51081;BME280;37130;55.670;37.596;2023-11-18T08:16:45;100500.56;;;-0.68;80.85
51081;BME280;37130;55.670;37.596;2023-11-18T08:19:13;100428.66;;;-1.32;80.42
51081;BME280;37130;55.670;37.596;2023-11-18T08:21:41;100504.44;;;-1.02;81.20
51081;BME280;37130;55.670;37.596;2023-11-18T08:24:09;100518.78;;;-1.29;80.78
51081;BME280;37130;55.670;37.596;2023-11-18T08:26:36;100497.50;;;-1.61;81.02
51081;BME280;37130;55.670;37.596;2023-11-18T08:29:04;100425.44;;;-2.26;82.03
51081;BME280;37130;55.670;37.596;2023-11-18T08:31:32;100432.91;;;-2.45;81.37
51081;BME280;37130;55.670;37.596;2023-11-18T08:34:00;100490.22;;;-2.32;82.08
51081;BME280;37130;55.670;37.596;2023-11-18T08:36:28;100468.44;;;-2.40;82.13
51081;BME280;37130;55.670;37.596;2023-11-18T08:38:55;100503.28;;;-2.28;82.32
51081;BME280;37130;55.670;37.596;2023-11-18T08:41:23;100497.03;;;-2.36;81.91
51081;BME280;37130;55.670;37.596;2023-11-18T08:43:54;100485.47;;;-2.53;82.78
51081;BME280;37130;55.670;37.596;2023-11-18T08:46:24;100488.34;;;-2.39;83.25
51081;BME280;37130;55.670;37.596;2023-11-18T08:48:53;100484.88;;;-2.40;82.94
51081;BME280;37130;55.670;37.596;2023-11-18T08:51:23;100407.84;;;-2.90;82.89
51081;BME280;37130;55.670;37.596;2023-11-18T08:53:53;100432.16;;;-2.83;82.96
51081;BME280;37130;55.670;37.596;2023-11-18T08:56:22;100486.09;;;-2.65;83.24
51081;BME280;37130;55.670;37.596;2023-11-18T08:59:01;100489.91;;;-2.48;83.02
51081;BME280;37130;55.670;37.596;2023-11-18T09:01:29;100474.59;;;-2.34;82.86
51081;BME280;37130;55.670;37.596;2023-11-18T09:03:58;100499.25;;;-2.12;83.05
51081;BME280;37130;55.670;37.596;2023-11-18T09:06:29;100497.47;;;-2.13;82.96
51081;BME280;37130;55.670;37.596;2023-11-18T09:08:57;100499.38;;;-2.04;82.05
51081;BME280;37130;55.670;37.596;2023-11-18T09:11:28;100498.34;;;-2.14;82.49
51081;BME280;37130;55.670;37.596;2023-11-18T09:14:11;100484.00;;;-2.39;82.53
51081;BME280;37130;55.670;37.596;2023-11-18T09:16:39;100440.34;;;-2.63;82.34
51081;BME280;37130;55.670;37.596;2023-11-18T09:19:09;100421.06;;;-2.77;82.69
51081;BME280;37130;55.670;37.596;2023-11-18T09:21:40;100475.88;;;-2.59;83.02
51081;BME280;37130;55.670;37.596;2023-11-18T09:24:09;100447.81;;;-2.78;83.16
51081;BME280;37130;55.670;37.596;2023-11-18T09:26:44;100491.47;;;-2.56;82.55
51081;BME280;37130;55.670;37.596;2023-11-18T09:29:14;100390.53;;;-3.33;82.78
51081;BME280;37130;55.670;37.596;2023-11-18T09:31:48;100420.97;;;-3.24;83.39
51081;BME280;37130;55.670;37.596;2023-11-18T09:34:18;100491.38;;;-2.60;83.16
51081;BME280;37130;55.670;37.596;2023-11-18T09:36:54;100483.81;;;-2.51;82.97
51081;BME280;37130;55.670;37.596;2023-11-18T09:39:22;100475.88;;;-2.57;83.00
51081;BME280;37130;55.670;37.596;2023-11-18T09:42:06;100492.25;;;-2.60;82.25
51081;BME280;37130;55.670;37.596;2023-11-18T09:44:37;100486.19;;;-2.62;82.70
51081;BME280;37130;55.670;37.596;2023-11-18T09:47:08;100492.84;;;-2.73;82.81
51081;BME280;37130;55.670;37.596;2023-11-18T09:49:44;100475.47;;;-2.79;82.62
51081;BME280;37130;55.670;37.596;2023-11-18T09:52:16;100490.09;;;-2.81;82.77
51081;BME280;37130;55.670;37.596;2023-11-18T09:55:10;100489.38;;;-2.74;83.02
51081;BME280;37130;55.670;37.596;2023-11-18T09:57:51;100469.88;;;-2.55;83.02
51081;BME280;37130;55.670;37.596;2023-11-18T10:00:26;100431.34;;;-2.82;81.86
51081;BME280;37130;55.670;37.596;2023-11-18T10:03:00;100418.38;;;-2.82;82.09
51081;BME280;37130;55.670;37.596;2023-11-18T10:05:29;100406.19;;;-2.86;81.25
51081;BME280;37130;55.670;37.596;2023-11-18T10:07:58;100472.78;;;-2.39;81.18
51081;BME280;37130;55.670;37.596;2023-11-18T10:10:32;100484.66;;;-2.51;79.79
51081;BME280;37130;55.670;37.596;2023-11-18T10:13:15;100476.91;;;-2.92;80.42
51081;BME280;37130;55.670;37.596;2023-11-18T10:15:50;100478.28;;;-3.09;80.98
51081;BME280;37130;55.670;37.596;2023-11-18T10:18:21;100423.13;;;-3.44;81.07
51081;BME280;37130;55.670;37.596;2023-11-18T10:20:51;100436.28;;;-3.35;80.90
51081;BME280;37130;55.670;37.596;2023-11-18T10:23:22;100473.25;;;-3.01;80.95
51081;BME280;37130;55.670;37.596;2023-11-18T10:25:51;100468.06;;;-3.03;80.32
51081;BME280;37130;55.670;37.596;2023-11-18T10:28:28;100470.53;;;-3.09;79.97
51081;BME280;37130;55.670;37.596;2023-11-18T10:30:57;100473.75;;;-3.19;79.93
51081;BME280;37130;55.670;37.596;2023-11-18T10:33:26;100464.91;;;-3.29;80.64
51081;BME280;37130;55.670;37.596;2023-11-18T10:35:59;100464.72;;;-3.37;80.87
51081;BME280;37130;55.670;37.596;2023-11-18T10:38:32;100415.81;;;-3.62;80.54
51081;BME280;37130;55.670;37.596;2023-11-18T10:41:04;100472.03;;;-3.17;80.72
51081;BME280;37130;55.670;37.596;2023-11-18T10:43:33;100470.38;;;-3.15;80.16
51081;BME280;37130;55.670;37.596;2023-11-18T10:48:50;100465.88;;;-3.22;80.57
51081;BME280;37130;55.670;37.596;2023-11-18T10:51:19;100463.28;;;-3.24;80.49
51081;BME280;37130;55.670;37.596;2023-11-18T10:53:51;100419.72;;;-3.42;81.29
51081;BME280;37130;55.670;37.596;2023-11-18T10:56:31;100416.56;;;-3.28;80.85
51081;BME280;37130;55.670;37.596;2023-11-18T10:59:07;100455.75;;;-3.13;80.47
51081;BME280;37130;55.670;37.596;2023-11-18T11:01:37;100467.41;;;-2.93;80.64
51081;BME280;37130;55.670;37.596;2023-11-18T11:04:14;100397.44;;;-3.34;80.82
51081;BME280;37130;55.670;37.596;2023-11-18T11:06:49;100464.44;;;-3.10;80.39
51081;BME280;37130;55.670;37.596;2023-11-18T11:09:21;100469.19;;;-3.29;80.75
51081;BME280;37130;55.670;37.596;2023-11-18T11:11:59;100464.81;;;-3.32;81.44
51081;BME280;37130;55.670;37.596;2023-11-18T11:14:34;100422.13;;;-3.49;80.79
51081;BME280;37130;55.670;37.596;2023-11-18T11:17:12;100462.25;;;-3.32;83.15
51081;BME280;37130;55.670;37.596;2023-11-18T11:20:05;100466.97;;;-3.14;82.54
51081;BME280;37130;55.670;37.596;2023-11-18T11:22:59;100469.03;;;-2.98;82.17
51081;BME280;37130;55.670;37.596;2023-11-18T11:25:42;100429.50;;;-3.28;81.32
51081;BME280;37130;55.670;37.596;2023-11-18T11:28:15;100470.38;;;-3.15;81.20
51081;BME280;37130;55.670;37.596;2023-11-18T11:30:55;100397.06;;;-3.52;81.31
51081;BME280;37130;55.670;37.596;2023-11-18T11:33:32;100434.91;;;-3.19;81.30
51081;BME280;37130;55.670;37.596;2023-11-18T11:36:12;100457.69;;;-3.03;80.62
51081;BME280;37130;55.670;37.596;2023-11-18T11:38:39;100472.69;;;-2.88;80.75
51081;BME280;37130;55.670;37.596;2023-11-18T11:41:07;100463.03;;;-2.94;80.00
51081;BME280;37130;55.670;37.596;2023-11-18T11:43:36;100426.81;;;-3.33;80.40
51081;BME280;37130;55.670;37.596;2023-11-18T11:46:04;100462.66;;;-3.12;81.05
51081;BME280;37130;55.670;37.596;2023-11-18T11:48:38;100462.25;;;-3.31;80.35
51081;BME280;37130;55.670;37.596;2023-11-18T11:53:54;100481.16;;;-3.35;80.84
51081;BME280;37130;55.670;37.596;2023-11-18T11:56:44;100456.94;;;-3.37;81.24
51081;BME280;37130;55.670;37.596;2023-11-18T11:59:34;100463.22;;;-3.25;80.77
51081;BME280;37130;55.670;37.596;2023-11-18T12:02:03;100402.97;;;-3.58;80.49
51081;BME280;37130;55.670;37.596;2023-11-18T12:04:36;100459.09;;;-3.17;80.80
51081;BME280;37130;55.670;37.596;2023-11-18T12:07:05;100440.72;;;-3.28;80.17
51081;BME280;37130;55.670;37.596;2023-11-18T12:09:47;100462.53;;;-3.18;80.32
51081;BME280;37130;55.670;37.596;2023-11-18T12:12:17;100457.28;;;-3.21;80.00
51081;BME280;37130;55.670;37.596;2023-11-18T12:17:20;100470.34;;;-3.17;80.62
51081;BME280;37130;55.670;37.596;2023-11-18T12:19:51;100355.72;;;-3.87;80.56
51081;BME280;37130;55.670;37.596;2023-11-18T12:22:27;100472.72;;;-3.27;80.25
51081;BME280;37130;55.670;37.596;2023-11-18T12:27:44;100476.06;;;-3.32;81.52
51081;BME280;37130;55.670;37.596;2023-11-18T12:35:29;100459.41;;;-3.43;80.96
51081;BME280;37130;55.670;37.596;2023-11-18T12:40:52;100404.97;;;-3.84;80.86
51081;BME280;37130;55.670;37.596;2023-11-18T12:46:47;100472.00;;;-3.58;81.78
51081;BME280;37130;55.670;37.596;2023-11-18T12:49:22;100471.75;;;-3.69;81.67
51081;BME280;37130;55.670;37.596;2023-11-18T12:51:54;100477.78;;;-3.68;81.08
51081;BME280;37130;55.670;37.596;2023-11-18T12:54:27;100478.53;;;-3.72;81.52
51081;BME280;37130;55.670;37.596;2023-11-18T12:56:56;100420.47;;;-4.20;81.47
51081;BME280;37130;55.670;37.596;2023-11-18T12:59:23;100459.00;;;-3.96;81.37
51081;BME280;37130;55.670;37.596;2023-11-18T13:01:51;100459.91;;;-3.94;81.58
51081;BME280;37130;55.670;37.596;2023-11-18T13:04:25;100422.22;;;-4.19;81.72
51081;BME280;37130;55.670;37.596;2023-11-18T13:06:55;100375.56;;;-4.57;82.08
51081;BME280;37130;55.670;37.596;2023-11-18T13:09:23;100479.69;;;-3.96;82.55
51081;BME280;37130;55.670;37.596;2023-11-18T13:11:57;100467.06;;;-4.19;82.01
51081;BME280;37130;55.670;37.596;2023-11-18T13:14:33;100412.47;;;-4.63;81.26
51081;BME280;37130;55.670;37.596;2023-11-18T13:17:06;100458.56;;;-4.46;81.73
51081;BME280;37130;55.670;37.596;2023-11-18T13:19:36;100492.19;;;-4.46;82.38
51081;BME280;37130;55.670;37.596;2023-11-18T13:22:05;100460.06;;;-4.54;82.51